createdAt,value
2023-04-11T00:00:13.264Z,2.70
2023-04-11T00:04:16.729Z,2.10
2023-04-11T00:08:17.948Z,2.30
2023-04-11T00:12:19.192Z,2.50
2023-04-11T00:16:20.583Z,1.80
2023-04-11T00:20:21.908Z,1.73
2023-04-11T00:24:26.396Z,2.13
2023-04-11T00:28:27.609Z,2.00
2023-04-11T00:32:29.194Z,2.67
2023-04-11T00:36:31.306Z,2.17
2023-04-11T00:40:32.479Z,1.90
2023-04-11T00:44:34.718Z,2.80
2023-04-11T00:48:36.055Z,2.47
2023-04-11T00:52:37.836Z,2.40
2023-04-11T00:56:39.267Z,2.40
2023-04-11T01:00:41.104Z,3.33
2023-04-11T01:04:43.241Z,2.30
2023-04-11T01:08:46.975Z,2.33
2023-04-11T01:12:48.916Z,2.20
2023-04-11T01:16:51.940Z,2.43
2023-04-11T01:20:54.284Z,2.10
2023-04-11T01:24:55.937Z,1.80
2023-04-11T01:28:57.397Z,1.80
2023-04-11T01:32:58.948Z,1.50
2023-04-11T01:37:01.261Z,1.40
2023-04-11T01:41:02.505Z,1.97
2023-04-11T01:45:06.671Z,1.47
2023-04-11T01:49:08.004Z,1.33
2023-04-11T01:53:09.273Z,1.53
2023-04-11T01:57:10.517Z,1.87
2023-04-11T02:01:12.893Z,1.67
2023-04-11T02:05:14.007Z,1.70
2023-04-11T02:09:15.666Z,1.23
2023-04-11T02:13:16.933Z,1.40
2023-04-11T02:17:18.283Z,1.30
2023-04-11T02:21:19.464Z,1.47
2023-04-11T02:25:20.513Z,1.70
2023-04-11T02:29:21.713Z,1.77
2023-04-11T02:33:23.404Z,3.27
2023-04-11T02:37:25.700Z,1.43
2023-04-11T02:41:26.805Z,1.63
2023-04-11T02:45:27.985Z,1.70
2023-04-11T02:49:29.282Z,1.23
2023-04-11T02:53:30.393Z,1.30
2023-04-11T02:57:31.987Z,1.53
2023-04-11T03:01:33.450Z,1.70
2023-04-11T03:05:35.203Z,1.20
2023-04-11T03:09:36.438Z,2.33
2023-04-11T03:13:38.761Z,1.83
2023-04-11T03:17:39.986Z,1.40
2023-04-11T03:21:41.184Z,1.10
2023-04-11T03:25:44.077Z,1.40
2023-04-11T03:29:45.384Z,1.37
2023-04-11T03:33:46.601Z,1.47
2023-04-11T03:37:47.807Z,1.30
2023-04-11T03:41:48.974Z,1.40
2023-04-11T03:45:51.219Z,1.93
2023-04-11T03:49:52.687Z,2.17
2023-04-11T03:53:53.853Z,1.23
2023-04-11T03:57:54.982Z,1.60
2023-04-11T04:01:56.181Z,1.27
2023-04-11T04:05:57.132Z,1.83
2023-04-11T04:09:58.065Z,1.77
2023-04-11T04:13:59.179Z,1.57
2023-04-11T04:18:00.227Z,1.97
2023-04-11T04:22:01.261Z,1.83
2023-04-11T04:26:02.654Z,3.07
2023-04-11T04:30:04.805Z,1.57
2023-04-11T04:34:09.418Z,2.37
2023-04-11T04:38:12.329Z,2.03
2023-04-11T04:42:13.269Z,1.77
2023-04-11T04:46:14.477Z,2.43
2023-04-11T04:50:15.728Z,1.77
2023-04-11T04:54:18.788Z,2.40
2023-04-11T04:58:20.209Z,2.80
2023-04-11T05:02:21.387Z,3.17
2023-04-11T05:06:22.469Z,3.90
2023-04-11T05:10:23.890Z,1.97
2023-04-11T05:14:25.132Z,2.27
2023-04-11T05:18:28.344Z,2.83
2023-04-11T05:22:29.372Z,3.17
2023-04-11T05:26:31.300Z,1.80
2023-04-11T05:30:32.395Z,2.57
2023-04-11T05:34:33.863Z,2.00
2023-04-11T05:38:35.118Z,2.17
2023-04-11T05:42:36.566Z,2.73
2023-04-11T05:46:37.651Z,2.43
2023-04-11T05:50:38.800Z,2.77
2023-04-11T05:54:40.548Z,3.57
2023-04-11T05:58:42.728Z,2.33
2023-04-11T06:02:44.324Z,2.67
2023-04-11T06:06:45.769Z,3.47
2023-04-11T06:10:47.015Z,2.90
2023-04-11T06:14:48.032Z,3.40
2023-04-11T06:18:49.064Z,2.63
2023-04-11T06:22:52.861Z,2.77
2023-04-11T06:26:54.074Z,2.97
2023-04-11T06:30:55.325Z,3.63
2023-04-11T06:34:56.461Z,5.27
2023-04-11T06:38:57.529Z,3.37
2023-04-11T06:43:00.426Z,3.63
2023-04-11T06:47:01.736Z,3.03
2023-04-11T06:51:03.438Z,3.07
2023-04-11T06:55:06.535Z,3.20
2023-04-11T06:59:07.811Z,3.47
2023-04-11T07:03:09.704Z,3.30
2023-04-11T07:07:10.952Z,3.37
2023-04-11T07:11:12.240Z,3.13
2023-04-11T07:15:13.218Z,2.57
2023-04-11T07:19:14.369Z,3.10
2023-04-11T07:23:15.528Z,3.37
2023-04-11T07:27:17.081Z,2.83
2023-04-11T07:31:20.098Z,3.43
2023-04-11T07:35:23.765Z,4.10
2023-04-11T07:39:24.972Z,3.47
2023-04-11T07:43:27.336Z,2.37
2023-04-11T07:47:28.541Z,3.37
2023-04-11T07:51:30.602Z,3.00
2023-04-11T07:55:31.599Z,2.93
2023-04-11T07:59:32.990Z,2.63
2023-04-11T08:03:34.839Z,2.40
2023-04-11T08:07:36.164Z,2.57
2023-04-11T08:11:38.715Z,2.73
2023-04-11T08:15:40.014Z,2.97
2023-04-11T08:19:41.293Z,2.70
2023-04-11T08:23:42.713Z,3.03
2023-04-11T08:27:44.455Z,3.17
2023-04-11T08:31:45.732Z,3.20
2023-04-11T08:35:46.807Z,2.60
2023-04-11T08:39:48.473Z,3.30
2023-04-11T08:43:49.849Z,2.33
2023-04-11T08:47:51.122Z,2.10
2023-04-11T08:51:53.688Z,2.87
2023-04-11T08:55:55.257Z,2.80
2023-04-11T09:00:03.589Z,2.47
2023-04-11T09:04:05.275Z,2.13
2023-04-11T09:08:12.323Z,4.00
2023-04-11T09:12:14.064Z,2.83
2023-04-11T09:16:16.060Z,2.77
2023-04-11T09:20:25.224Z,2.27
2023-04-11T09:24:30.384Z,2.13
2023-04-11T09:28:52.537Z,2.87
2023-04-11T09:32:54.237Z,3.10
2023-04-11T09:36:56.200Z,2.23
2023-04-11T09:40:57.761Z,2.77
2023-04-11T09:44:58.734Z,2.13
2023-04-11T09:49:02.765Z,1.93
2023-04-11T09:53:06.347Z,1.93
2023-04-11T09:57:08.079Z,3.97
2023-04-11T10:01:09.897Z,1.67
2023-04-11T10:05:12.579Z,2.50
2023-04-11T10:09:14.794Z,2.40
2023-04-11T10:13:37.276Z,2.47
2023-04-11T10:17:42.297Z,1.80
2023-04-11T10:21:43.469Z,2.17
2023-04-11T10:25:53.420Z,2.00
2023-04-11T10:29:54.824Z,1.57
2023-04-11T10:34:16.176Z,1.80
2023-04-11T10:38:33.327Z,1.90
2023-04-11T10:42:38.389Z,2.60
2023-04-11T10:46:50.986Z,2.20
2023-04-11T10:50:52.644Z,2.00
2023-04-11T10:54:54.299Z,2.67
2023-04-11T10:58:55.750Z,2.27
2023-04-11T11:02:57.544Z,1.60
2023-04-11T11:07:00.725Z,1.90
2023-04-11T11:11:07.057Z,1.97
2023-04-11T11:15:14.879Z,1.60
2023-04-11T11:19:16.105Z,2.20
2023-04-11T11:23:17.107Z,2.87
2023-04-11T11:27:20.100Z,1.50
2023-04-11T11:31:21.460Z,1.67
2023-04-11T11:35:23.639Z,1.57
2023-04-11T11:39:25.264Z,3.57
2023-04-11T11:43:29.769Z,2.23
2023-04-11T11:47:34.938Z,1.70
2023-04-11T11:51:45.992Z,1.83
2023-04-11T11:55:47.314Z,2.43
2023-04-11T11:59:55.680Z,2.20
2023-04-11T12:08:24.014Z,2.20
2023-04-11T12:12:37.130Z,2.00
2023-04-11T12:16:38.784Z,2.60
2023-04-11T12:20:40.891Z,2.13
2023-04-11T12:24:41.861Z,2.33
2023-04-11T12:28:42.958Z,1.83
2023-04-11T12:32:44.687Z,1.77
2023-04-11T12:36:45.721Z,1.60
2023-04-11T12:40:46.702Z,2.00
2023-04-11T12:44:48.232Z,1.53
2023-04-11T12:48:49.238Z,1.03
2023-04-11T12:52:50.295Z,2.27
2023-04-11T12:56:51.317Z,1.20
2023-04-11T13:00:52.317Z,1.50
2023-04-11T13:04:53.494Z,1.40
2023-04-11T13:08:56.389Z,1.27
2023-04-11T13:13:00.644Z,1.57
2023-04-11T13:17:01.911Z,1.57
2023-04-11T13:21:03.098Z,1.10
2023-04-11T13:25:05.274Z,1.30
2023-04-11T13:29:06.909Z,0.83
2023-04-11T13:33:07.917Z,1.00
2023-04-11T13:37:08.896Z,1.70
2023-04-11T13:41:09.916Z,1.87
2023-04-11T13:45:11.302Z,1.57
2023-04-11T13:49:12.299Z,1.63
2023-04-11T13:53:13.393Z,1.27
2023-04-11T13:57:14.440Z,2.23
2023-04-11T14:01:15.695Z,1.73
2023-04-11T14:05:17.114Z,1.70
2023-04-11T14:09:18.120Z,1.27
2023-04-11T14:13:19.989Z,1.50
2023-04-11T14:17:21.040Z,1.00
2023-04-11T14:21:22.322Z,1.40
2023-04-11T14:25:23.323Z,1.47
2023-04-11T14:29:25.753Z,1.50
2023-04-11T14:33:26.772Z,1.60
2023-04-11T14:37:27.807Z,1.50
2023-04-11T14:41:29.042Z,1.40
2023-04-11T14:45:30.161Z,1.30
2023-04-11T14:49:31.427Z,1.70
2023-04-11T14:53:32.575Z,1.30
2023-04-11T14:57:47.801Z,1.63
2023-04-11T15:01:48.915Z,1.50
2023-04-11T15:05:50.386Z,1.27
2023-04-11T15:09:51.577Z,1.63
2023-04-11T15:13:53.210Z,1.27
2023-04-11T15:18:23.462Z,1.20
2023-04-11T15:22:25.693Z,1.67
2023-04-11T15:26:27.348Z,1.40
2023-04-11T15:30:28.332Z,1.30
2023-04-11T15:34:29.437Z,1.10
2023-04-11T15:38:30.748Z,1.20
2023-04-11T15:42:33.702Z,1.27
2023-04-11T15:46:34.928Z,2.20
2023-04-11T15:50:36.150Z,1.33
2023-04-11T15:54:37.256Z,1.20
2023-04-11T15:58:38.275Z,1.93
2023-04-11T16:02:44.899Z,1.57
2023-04-11T16:06:46.155Z,1.73
2023-04-11T16:10:47.552Z,1.67
2023-04-11T16:14:48.896Z,1.10
2023-04-11T16:18:50.327Z,1.50
2023-04-11T16:22:51.415Z,1.47
2023-04-11T16:26:52.443Z,1.43
2023-04-11T16:30:53.507Z,1.80
2023-04-11T16:34:54.715Z,1.50
2023-04-11T16:38:55.762Z,1.97
2023-04-11T16:42:56.851Z,1.60
2023-04-11T16:46:57.908Z,1.20
2023-04-11T16:50:58.934Z,1.20
2023-04-11T16:55:00.326Z,1.60
2023-04-11T16:59:03.231Z,1.00
2023-04-11T17:03:05.056Z,1.23
2023-04-11T17:07:06.189Z,1.60
2023-04-11T17:11:09.690Z,1.23
2023-04-11T17:15:11.646Z,1.70
2023-04-11T17:19:12.944Z,1.57
2023-04-11T17:23:14.534Z,1.63
2023-04-11T17:27:15.727Z,7.97
2023-04-11T17:31:18.207Z,4.87
2023-04-11T17:35:19.868Z,2.70
2023-04-11T17:39:21.152Z,2.13
2023-04-11T17:43:22.365Z,2.03
2023-04-11T17:47:23.397Z,1.40
2023-04-11T17:51:24.393Z,1.43
2023-04-11T17:55:25.511Z,1.60
2023-04-11T17:59:27.294Z,1.33
2023-04-11T18:03:30.514Z,1.83
2023-04-11T18:07:31.896Z,2.07
2023-04-11T18:11:33.358Z,2.10
2023-04-11T18:15:35.066Z,2.30
2023-04-11T18:19:36.186Z,3.23
2023-04-11T18:23:38.506Z,1.80
2023-04-11T18:27:40.106Z,1.83
2023-04-11T18:31:41.175Z,2.12
2023-04-11T18:35:42.267Z,1.80
2023-04-11T18:39:43.414Z,2.10
2023-04-11T18:43:44.492Z,2.47
2023-04-11T18:47:46.077Z,1.90
2023-04-11T18:51:47.239Z,1.83
2023-04-11T18:55:48.398Z,1.80
2023-04-11T18:59:50.888Z,1.80
2023-04-11T19:03:54.775Z,2.30
2023-04-11T19:07:58.021Z,1.90
2023-04-11T19:11:59.082Z,3.50
2023-04-11T19:16:00.327Z,2.60
2023-04-11T19:20:04.103Z,4.00
2023-04-11T19:24:05.664Z,3.93
2023-04-11T19:28:06.761Z,4.77
2023-04-11T19:32:08.557Z,6.20
2023-04-11T19:36:09.638Z,5.97
2023-04-11T19:40:14.492Z,5.83
2023-04-11T19:44:15.978Z,4.40
2023-04-11T19:48:17.043Z,5.10
2023-04-11T19:52:18.599Z,5.47
2023-04-11T19:56:19.799Z,5.57
2023-04-11T20:00:20.981Z,4.90
2023-04-11T20:04:22.077Z,3.63
2023-04-11T20:08:25.709Z,3.30
2023-04-11T20:12:26.789Z,3.03
2023-04-11T20:16:29.853Z,3.20
2023-04-11T20:20:32.733Z,3.13
2023-04-11T20:24:33.878Z,3.37
2023-04-11T20:28:35.964Z,2.53
2023-04-11T20:32:37.795Z,3.53
2023-04-11T20:36:38.912Z,2.77
2023-04-11T20:40:39.967Z,4.13
2023-04-11T20:44:42.005Z,3.90
2023-04-11T20:48:43.208Z,3.57
2023-04-11T20:52:46.159Z,6.77
2023-04-11T20:56:47.543Z,4.10
2023-04-11T21:00:48.722Z,7.37
2023-04-11T21:04:52.931Z,8.83
2023-04-11T21:08:55.743Z,10.13
2023-04-11T21:12:57.161Z,7.80
2023-04-11T21:16:58.494Z,5.30
2023-04-11T21:20:59.812Z,4.20
2023-04-11T21:25:02.888Z,4.17
2023-04-11T21:29:04.136Z,3.40
2023-04-11T21:33:05.458Z,3.00
2023-04-11T21:37:06.690Z,2.83
2023-04-11T21:41:07.765Z,2.73
2023-04-11T21:45:09.105Z,3.17
2023-04-11T21:49:10.498Z,3.50
2023-04-11T21:53:13.262Z,4.10
2023-04-11T21:57:14.364Z,3.53
2023-04-11T22:01:15.437Z,3.13
2023-04-11T22:05:17.766Z,4.00
2023-04-11T22:09:19.638Z,3.53
2023-04-11T22:13:21.270Z,3.07
2023-04-11T22:17:23.162Z,2.60
2023-04-11T22:21:25.842Z,3.43
2023-04-11T22:25:26.852Z,2.80
2023-04-11T22:29:29.811Z,3.00
2023-04-11T22:33:30.962Z,2.80
2023-04-11T22:37:31.965Z,2.37
2023-04-11T22:41:34.632Z,2.87
2023-04-11T22:45:35.937Z,2.40
2023-04-11T22:49:39.928Z,2.23
2023-04-11T22:53:41.550Z,2.30
2023-04-11T22:57:42.562Z,2.10
2023-04-11T23:01:44.048Z,1.97
2023-04-11T23:05:45.048Z,2.60
2023-04-11T23:09:46.563Z,2.03
2023-04-11T23:13:47.596Z,2.03
2023-04-11T23:17:49.237Z,2.37
2023-04-11T23:21:50.254Z,2.20
2023-04-11T23:25:51.696Z,2.60
2023-04-11T23:29:53.591Z,2.33
2023-04-11T23:33:54.986Z,2.37
2023-04-11T23:37:56.294Z,2.80
2023-04-11T23:41:57.286Z,2.37
2023-04-11T23:45:58.503Z,2.73
2023-04-11T23:50:00.400Z,3.00
2023-04-11T23:54:01.773Z,2.90
2023-04-11T23:58:03.450Z,2.93
